Time;durP1;ratioP1;P1;durP2;ratioP2;P2;SDS_P1;SDS_P2;PMS_P1;PMS_P2;Temp;Humidity;BMP_temperature;BMP_pressure;BME280_temperature;BME280_humidity;BME280_pressure;Samples;Min_cycle;Max_cycle;Signal;HPM_P1;HPM_P2
2023/11/08 00:02:23;;;;;;;5.30;2.50;;;;;;;21.56;63.68;101820.76;107079;1256;25337;-53
2023/11/08 00:04:50;;;;;;;5.50;2.40;;;;;;;21.51;63.82;101806.20;107167;1250;25501;-52
2023/11/08 00:07:17;;;;;;;5.90;2.50;;;;;;;21.50;63.80;101807.47;107121;1254;25321;-53
2023/11/08 00:09:46;;;;;;;8.90;2.70;;;;;;;21.50;63.76;101803.96;107139;1257;24358;-52
2023/11/08 00:12:13;;;;;;;6.10;3.00;;;;;;;21.48;63.80;101798.73;107168;1257;25331;-55
2023/11/08 00:14:43;;;;;;;8.70;2.90;;;;;;;21.49;63.87;101794.30;106983;1254;23295;-54
2023/11/08 00:17:10;;;;;;;4.40;2.40;;;;;;;21.49;63.78;101790.04;107001;1253;24271;-55
2023/11/08 00:19:37;;;;;;;7.00;2.30;;;;;;;21.49;63.82;101786.17;106686;1265;25309;-54
2023/11/08 00:22:04;;;;;;;8.70;2.80;;;;;;;21.48;64.02;101782.15;107129;1267;25402;-54
2023/11/08 00:24:31;;;;;;;7.20;2.50;;;;;;;21.47;64.15;101776.02;107069;1262;22781;-55
2023/11/08 00:26:59;;;;;;;4.30;2.60;;;;;;;21.47;64.18;101768.45;107132;1264;25356;-55
2023/11/08 00:29:27;;;;;;;8.20;2.90;;;;;;;21.48;64.18;101765.55;107210;1267;25347;-54
2023/11/08 00:31:54;;;;;;;6.10;2.70;;;;;;;21.51;64.24;101753.39;106982;1260;25347;-54
2023/11/08 00:34:22;;;;;;;4.40;2.60;;;;;;;21.51;64.28;101747.39;107089;1257;25347;-54
2023/11/08 00:36:49;;;;;;;7.20;2.80;;;;;;;21.51;64.32;101742.97;107113;1259;25408;-54
2023/11/08 00:39:18;;;;;;;5.90;2.90;;;;;;;21.53;64.35;101739.52;107044;1252;25359;-55
2023/11/08 00:41:45;;;;;;;4.10;2.40;;;;;;;21.54;64.40;101731.88;107018;1251;25571;-54
2023/11/08 00:44:12;;;;;;;7.70;2.30;;;;;;;21.55;64.35;101726.89;107140;1257;25322;-54
2023/11/08 00:46:39;;;;;;;6.20;2.90;;;;;;;21.56;64.33;101722.61;106806;1260;25359;-54
2023/11/08 00:49:06;;;;;;;8.60;3.70;;;;;;;21.56;64.32;101714.30;107090;1264;25378;-54
2023/11/08 00:51:33;;;;;;;8.80;3.00;;;;;;;21.58;64.33;101713.28;107177;1264;25337;-54
2023/11/08 00:54:00;;;;;;;9.70;2.70;;;;;;;21.58;64.30;101709.05;107118;1258;25420;-54
2023/11/08 00:56:28;;;;;;;9.50;3.10;;;;;;;21.59;64.23;101702.13;107248;1255;25318;-54
2023/11/08 00:58:55;;;;;;;9.60;2.90;;;;;;;21.61;64.19;101700.95;107007;1261;25388;-54
2023/11/08 01:01:22;;;;;;;8.40;2.70;;;;;;;21.61;64.25;101700.76;107122;1258;25340;-54
2023/11/08 01:03:50;;;;;;;7.50;2.50;;;;;;;21.62;64.21;101698.44;106925;1264;25478;-54
2023/11/08 01:06:17;;;;;;;7.20;2.70;;;;;;;21.63;64.29;101694.86;107183;1251;25340;-53
2023/11/08 01:08:44;;;;;;;8.30;2.30;;;;;;;21.64;64.20;101689.70;106987;1264;25501;-54
2023/11/08 01:11:11;;;;;;;9.80;2.90;;;;;;;21.64;64.29;101674.98;107100;1258;25507;-54
2023/11/08 01:13:38;;;;;;;7.30;2.60;;;;;;;21.65;64.15;101671.09;107004;1255;24228;-54
2023/11/08 01:16:08;;;;;;;7.80;2.60;;;;;;;21.65;64.18;101665.25;106986;1258;25535;-54
2023/11/08 01:18:35;;;;;;;12.20;3.20;;;;;;;21.65;64.07;101663.63;107152;1267;25571;-54
2023/11/08 01:21:03;;;;;;;6.90;3.00;;;;;;;21.66;64.14;101667.98;107145;1257;23292;-54
2023/11/08 01:23:30;;;;;;;4.90;2.30;;;;;;;21.69;64.08;101659.21;106849;1265;22542;-54
2023/11/08 01:25:57;;;;;;;7.00;3.00;;;;;;;21.72;63.96;101659.92;106924;1257;25343;-53
2023/11/08 01:28:24;;;;;;;9.10;3.20;;;;;;;21.75;63.84;101656.22;106808;1267;25353;-53
2023/11/08 01:30:51;;;;;;;7.20;3.00;;;;;;;21.74;63.95;101653.61;106860;1260;24331;-54
2023/11/08 01:33:18;;;;;;;8.70;2.60;;;;;;;21.74;63.91;101648.84;106721;1267;25321;-54
2023/11/08 01:35:45;;;;;;;9.40;2.80;;;;;;;21.83;63.66;101648.55;107284;1253;25386;-53
2023/11/08 01:38:12;;;;;;;10.00;3.00;;;;;;;21.99;63.24;101650.88;107174;1254;22731;-52
2023/11/08 01:40:43;;;;;;;10.90;3.70;;;;;;;22.02;62.91;101654.41;107125;1254;25341;-52
2023/11/08 01:43:30;;;;;;;9.10;3.10;;;;;;;22.04;63.09;101655.71;107100;1255;25369;-52
2023/11/08 01:46:12;;;;;;;7.40;2.70;;;;;;;22.04;63.00;101656.62;107166;1266;22547;-53
2023/11/08 01:48:40;;;;;;;7.80;2.60;;;;;;;22.03;63.06;101651.20;107011;1265;22524;-53
2023/11/08 01:51:07;;;;;;;11.40;3.40;;;;;;;22.03;63.07;101648.34;106769;1269;25347;-52
2023/11/08 01:53:39;;;;;;;6.90;3.00;;;;;;;22.04;62.93;101639.61;106921;1256;22544;-53
2023/11/08 01:56:07;;;;;;;8.10;3.80;;;;;;;22.05;62.92;101634.46;106811;1257;25461;-53
2023/11/08 01:58:37;;;;;;;10.10;3.20;;;;;;;22.07;62.93;101631.86;106779;1254;25322;-53
2023/11/08 02:01:13;;;;;;;11.90;2.60;;;;;;;22.08;62.96;101627.91;106789;1260;22582;-53
2023/11/08 02:03:40;;;;;;;8.80;3.10;;;;;;;22.08;62.90;101624.55;106895;1259;25555;-53
2023/11/08 02:06:10;;;;;;;11.40;2.70;;;;;;;22.10;62.69;101626.91;107169;1256;24223;-53
2023/11/08 02:08:40;;;;;;;4.30;2.10;;;;;;;22.11;62.67;101624.39;106876;1260;24441;-53
2023/11/08 02:11:08;;;;;;;5.80;2.70;;;;;;;22.12;62.61;101625.61;107073;1257;25353;-52
2023/11/08 02:13:35;;;;;;;5.80;2.70;;;;;;;22.12;62.60;101624.00;106507;1265;25340;-53
2023/11/08 02:16:03;;;;;;;8.20;2.50;;;;;;;22.12;62.46;101619.73;107100;1258;25359;-54
2023/11/08 02:18:31;;;;;;;7.90;2.50;;;;;;;22.13;62.39;101613.33;107091;1254;22799;-53
2023/11/08 02:21:02;;;;;;;8.00;3.50;;;;;;;22.14;62.44;101608.84;107164;1253;22561;-54
2023/11/08 02:23:31;;;;;;;10.90;2.70;;;;;;;22.14;62.27;101609.53;106914;1259;25471;-53
2023/11/08 02:25:58;;;;;;;8.60;3.00;;;;;;;22.14;62.24;101608.83;107165;1251;24391;-53
2023/11/08 02:28:26;;;;;;;11.50;2.90;;;;;;;22.14;62.19;101606.36;106887;1267;25392;-53
2023/11/08 02:30:56;;;;;;;8.40;3.10;;;;;;;22.14;62.18;101605.83;107161;1258;25346;-53
2023/11/08 02:33:24;;;;;;;7.20;2.00;;;;;;;22.16;62.17;101608.60;107181;1261;25344;-53
2023/11/08 02:35:52;;;;;;;9.80;3.10;;;;;;;22.17;61.95;101609.23;107125;1253;22537;-53
2023/11/08 02:38:19;;;;;;;7.30;2.30;;;;;;;22.17;61.96;101602.50;107056;1255;25369;-54
2023/11/08 02:40:46;;;;;;;7.60;3.30;;;;;;;22.18;61.88;101600.52;107049;1254;22531;-53
2023/11/08 02:43:13;;;;;;;5.00;2.40;;;;;;;22.18;61.78;101603.17;107060;1251;25321;-53
2023/11/08 02:45:40;;;;;;;8.90;2.50;;;;;;;22.19;61.64;101608.23;106988;1254;25398;-53
2023/11/08 02:48:07;;;;;;;6.50;3.30;;;;;;;22.20;61.60;101602.52;106627;1258;25387;-54
2023/11/08 02:50:40;;;;;;;7.60;2.70;;;;;;;22.21;61.52;101599.29;106539;1266;25348;-53
2023/11/08 02:53:08;;;;;;;9.40;3.20;;;;;;;22.21;61.49;101596.60;106700;1257;25294;-53
2023/11/08 02:55:35;;;;;;;8.40;2.70;;;;;;;22.22;61.43;101594.98;106605;1257;25362;-53
2023/11/08 02:58:02;;;;;;;7.50;3.10;;;;;;;22.23;61.35;101594.57;106306;1270;25414;-53
2023/11/08 03:00:29;;;;;;;8.40;2.30;;;;;;;22.24;61.22;101590.96;106255;1261;25477;-54
2023/11/08 03:02:57;;;;;;;6.00;2.50;;;;;;;22.24;61.20;101591.84;106459;1261;25362;-53
2023/11/08 03:05:24;;;;;;;14.30;3.20;;;;;;;22.23;61.17;101590.87;106767;1263;25344;-53
2023/11/08 03:07:53;;;;;;;10.10;2.90;;;;;;;22.26;61.02;101587.14;106782;1258;25360;-53
2023/11/08 03:10:21;;;;;;;10.00;2.60;;;;;;;22.27;60.91;101573.81;106774;1263;24024;-54
2023/11/08 03:12:50;;;;;;;8.70;2.80;;;;;;;22.27;60.84;101570.25;106738;1260;22746;-53
2023/11/08 03:15:18;;;;;;;7.90;2.80;;;;;;;22.29;60.74;101574.23;106807;1259;25550;-53
2023/11/08 03:17:45;;;;;;;8.90;3.00;;;;;;;22.30;60.67;101570.27;106516;1267;25341;-54
2023/11/08 03:20:13;;;;;;;12.00;2.80;;;;;;;22.31;60.63;101565.09;107149;1260;25401;-53
2023/11/08 03:22:41;;;;;;;10.80;2.90;;;;;;;22.32;60.53;101556.36;107126;1253;24208;-54
2023/11/08 03:25:11;;;;;;;8.10;2.50;;;;;;;22.33;60.53;101555.09;106863;1267;25506;-54
2023/11/08 03:27:46;;;;;;;8.70;3.10;;;;;;;22.34;60.33;101550.28;107178;1251;25242;-53
2023/11/08 03:30:13;;;;;;;11.30;3.30;;;;;;;22.34;60.41;101547.97;107101;1257;25356;-53
2023/11/08 03:32:41;;;;;;;9.90;2.50;;;;;;;22.35;60.33;101544.90;107082;1254;25545;-53
2023/11/08 03:35:09;;;;;;;12.40;3.10;;;;;;;22.35;60.39;101541.36;107150;1251;25379;-53
2023/11/08 03:37:39;;;;;;;7.00;2.30;;;;;;;22.35;60.35;101539.40;107063;1254;25481;-53
2023/11/08 03:40:11;;;;;;;9.20;2.30;;;;;;;22.35;60.25;101536.05;107111;1254;25392;-53
2023/11/08 03:42:39;;;;;;;6.40;2.30;;;;;;;22.35;60.18;101531.27;107040;1260;25391;-53
2023/11/08 03:45:07;;;;;;;10.00;3.10;;;;;;;22.35;60.01;101522.79;107140;1253;25343;-53
2023/11/08 03:47:35;;;;;;;7.80;2.20;;;;;;;22.36;59.94;101523.27;107232;1255;22688;-53
2023/11/08 03:50:02;;;;;;;9.80;2.70;;;;;;;22.36;59.83;101517.80;107236;1263;22768;-54
2023/11/08 03:52:30;;;;;;;8.50;2.90;;;;;;;22.35;59.71;101516.77;106849;1262;25483;-53
2023/11/08 03:54:57;;;;;;;10.10;2.30;;;;;;;22.35;59.69;101519.60;106922;1254;25331;-53
2023/11/08 03:57:24;;;;;;;9.40;2.60;;;;;;;22.34;59.53;101517.21;106821;1254;25468;-53
2023/11/08 03:59:54;;;;;;;8.50;3.00;;;;;;;22.34;59.44;101516.81;106908;1263;25337;-54
2023/11/08 04:02:21;;;;;;;9.20;3.60;;;;;;;22.34;59.68;101510.10;107007;1252;24202;-56
2023/11/08 04:04:48;;;;;;;11.60;3.20;;;;;;;22.34;59.69;101505.16;106156;1257;1004140;-52
2023/11/08 04:07:15;;;;;;;9.90;2.90;;;;;;;22.34;59.75;101505.33;107091;1250;22643;-53
2023/11/08 04:09:43;;;;;;;11.30;3.20;;;;;;;22.34;59.72;101505.35;106893;1256;25428;-53
2023/11/08 04:12:11;;;;;;;14.50;2.50;;;;;;;22.34;59.56;101506.90;106978;1263;24249;-53
2023/11/08 04:14:38;;;;;;;9.20;3.30;;;;;;;22.35;59.62;101504.95;107080;1250;22662;-54
2023/11/08 04:17:08;;;;;;;8.60;2.70;;;;;;;22.35;59.46;101501.04;107097;1255;22533;-53
2023/11/08 04:19:36;;;;;;;7.60;2.60;;;;;;;22.36;59.40;101501.37;107215;1251;25350;-52
2023/11/08 04:22:05;;;;;;;11.60;2.60;;;;;;;22.36;59.33;101497.80;107144;1254;25359;-53
2023/11/08 04:24:33;;;;;;;10.00;2.80;;;;;;;22.37;59.27;101487.66;106887;1256;25271;-53
2023/11/08 04:27:02;;;;;;;9.00;2.60;;;;;;;22.38;59.14;101486.36;107163;1256;25331;-53
2023/11/08 04:29:31;;;;;;;7.50;2.10;;;;;;;22.38;59.10;101486.88;106879;1267;25328;-53
2023/11/08 04:31:58;;;;;;;7.20;2.90;;;;;;;22.39;59.10;101487.02;107050;1257;25346;-54
2023/11/08 04:34:25;;;;;;;9.60;2.80;;;;;;;22.38;58.91;101482.10;107103;1250;22553;-53
2023/11/08 04:36:52;;;;;;;8.10;2.90;;;;;;;22.40;58.83;101479.38;107114;1256;25481;-54
2023/11/08 04:39:21;;;;;;;8.80;2.50;;;;;;;22.41;58.52;101485.66;106182;1254;1003090;-54
2023/11/08 04:41:49;;;;;;;8.80;2.30;;;;;;;22.41;58.48;101490.07;107151;1257;25340;-54
2023/11/08 04:44:16;;;;;;;8.30;2.90;;;;;;;22.41;58.36;101489.36;106580;1266;25346;-53
2023/11/08 04:46:43;;;;;;;12.60;3.60;;;;;;;22.42;58.37;101491.09;106891;1260;25353;-54
2023/11/08 04:49:12;;;;;;;9.50;2.70;;;;;;;22.42;58.39;101495.11;106732;1257;25468;-53
2023/11/08 04:51:39;;;;;;;8.80;3.80;;;;;;;22.43;58.01;101492.80;106787;1263;22528;-53
2023/11/08 04:54:06;;;;;;;8.00;2.10;;;;;;;22.43;57.61;101492.42;107029;1251;25322;-53
2023/11/08 04:56:34;;;;;;;6.20;1.90;;;;;;;22.44;57.45;101493.08;107119;1257;25322;-54
2023/11/08 04:59:01;;;;;;;5.50;1.80;;;;;;;22.45;57.18;101490.70;107152;1256;25471;-53
2023/11/08 05:01:28;;;;;;;11.20;3.00;;;;;;;22.47;57.02;101486.17;107250;1264;25350;-52
2023/11/08 05:03:59;;;;;;;8.30;2.30;;;;;;;22.48;57.19;101479.41;107163;1254;22601;-53
2023/11/08 05:06:26;;;;;;;13.50;3.00;;;;;;;22.50;57.42;101473.98;107317;1250;22523;-53
2023/11/08 05:08:53;;;;;;;8.00;2.40;;;;;;;22.50;57.48;101472.34;107174;1260;25331;-54
2023/11/08 05:11:20;;;;;;;7.50;2.20;;;;;;;22.51;57.66;101473.92;106874;1256;23863;-53
2023/11/08 05:13:47;;;;;;;10.30;2.80;;;;;;;22.51;57.63;101476.71;107229;1257;25323;-53
2023/11/08 05:16:21;;;;;;;11.00;2.80;;;;;;;22.52;57.58;101476.16;106825;1253;24203;-53
2023/11/08 05:18:49;;;;;;;9.80;2.60;;;;;;;22.52;57.67;101474.36;107159;1259;25330;-54
2023/11/08 05:21:18;;;;;;;12.20;3.30;;;;;;;22.54;57.84;101470.02;107085;1265;25322;-53
2023/11/08 05:23:45;;;;;;;12.10;2.80;;;;;;;22.55;58.11;101467.27;106989;1260;22538;-53
2023/11/08 05:26:12;;;;;;;8.40;2.70;;;;;;;22.57;58.48;101466.84;106848;1256;25331;-54
2023/11/08 05:28:39;;;;;;;8.90;3.00;;;;;;;22.59;58.56;101465.31;106996;1257;25318;-53
2023/11/08 05:31:06;;;;;;;8.60;2.50;;;;;;;22.64;58.69;101462.20;107252;1254;25362;-53
2023/11/08 05:33:33;;;;;;;10.70;2.70;;;;;;;22.67;58.83;101455.00;107219;1257;25477;-53
2023/11/08 05:36:00;;;;;;;8.50;2.70;;;;;;;22.66;58.90;101452.73;107122;1254;24185;-53
2023/11/08 05:38:27;;;;;;;9.10;2.60;;;;;;;22.65;58.94;101450.65;107152;1263;25327;-53
2023/11/08 05:40:55;;;;;;;7.80;2.50;;;;;;;22.67;59.11;101446.84;107075;1254;24179;-54
2023/11/08 05:43:22;;;;;;;8.40;2.80;;;;;;;22.68;58.96;101449.25;106857;1257;22631;-54
2023/11/08 05:45:49;;;;;;;12.70;2.90;;;;;;;22.70;59.15;101446.48;107067;1250;25368;-54
2023/11/08 05:48:16;;;;;;;13.50;3.30;;;;;;;22.72;59.09;101444.02;106891;1267;25338;-53
2023/11/08 05:50:44;;;;;;;12.80;3.20;;;;;;;22.74;59.09;101447.80;107127;1260;25360;-53
2023/11/08 05:53:14;;;;;;;9.60;2.70;;;;;;;22.76;59.09;101451.40;106912;1260;25365;-54
2023/11/08 05:55:41;;;;;;;12.60;3.80;;;;;;;22.77;58.93;101449.90;106862;1256;25420;-54
2023/11/08 05:58:09;;;;;;;12.30;2.90;;;;;;;22.80;58.81;101448.17;107218;1256;23278;-55
2023/11/08 06:00:41;;;;;;;12.50;3.40;;;;;;;22.81;58.94;101447.40;107070;1253;25366;-54
2023/11/08 06:03:08;;;;;;;11.40;3.70;;;;;;;22.82;58.90;101446.42;107166;1250;25321;-53
2023/11/08 06:05:35;;;;;;;11.60;4.00;;;;;;;22.84;58.96;101444.02;107028;1263;25350;-53
2023/11/08 06:08:03;;;;;;;10.10;2.40;;;;;;;22.85;58.99;101448.89;106895;1270;25481;-53
2023/11/08 06:10:32;;;;;;;12.60;3.60;;;;;;;22.88;59.03;101452.44;107163;1254;25379;-53
2023/11/08 06:12:59;;;;;;;11.90;3.40;;;;;;;22.89;59.06;101456.77;107091;1254;22645;-53
2023/11/08 06:15:26;;;;;;;11.40;3.00;;;;;;;22.90;58.73;101455.13;107117;1256;25350;-53
2023/11/08 06:17:54;;;;;;;11.80;2.80;;;;;;;22.91;58.81;101456.12;107082;1270;22527;-53
2023/11/08 06:20:22;;;;;;;10.30;3.30;;;;;;;22.92;58.56;101451.62;107125;1266;25390;-53
2023/11/08 06:22:49;;;;;;;10.10;2.80;;;;;;;22.92;58.50;101450.03;107135;1266;22536;-53
2023/11/08 06:25:16;;;;;;;14.80;2.90;;;;;;;22.93;58.51;101451.24;106821;1265;25052;-53
2023/11/08 06:27:45;;;;;;;9.60;2.80;;;;;;;22.93;58.50;101450.52;107200;1266;25385;-53
2023/11/08 06:30:12;;;;;;;12.00;3.00;;;;;;;22.93;58.43;101452.46;107117;1253;22573;-53
2023/11/08 06:32:39;;;;;;;11.70;3.20;;;;;;;22.94;58.41;101450.96;106879;1273;25387;-52
2023/11/08 06:35:07;;;;;;;10.00;2.80;;;;;;;22.96;58.30;101449.27;107258;1255;25442;-53
2023/11/08 06:37:34;;;;;;;11.50;2.80;;;;;;;22.97;58.22;101446.39;106968;1259;25328;-53
2023/11/08 06:40:01;;;;;;;12.40;3.60;;;;;;;22.97;58.18;101447.60;106800;1260;22753;-53
2023/11/08 06:42:28;;;;;;;14.00;3.20;;;;;;;22.98;58.15;101444.20;106844;1258;25457;-53
2023/11/08 06:44:55;;;;;;;8.10;2.40;;;;;;;23.00;58.12;101439.98;106930;1257;25481;-53
2023/11/08 06:47:22;;;;;;;13.00;3.70;;;;;;;23.02;58.23;101440.19;107006;1258;25427;-53
2023/11/08 06:49:49;;;;;;;11.90;3.40;;;;;;;23.04;58.32;101437.60;106921;1259;25359;-53
2023/11/08 06:52:17;;;;;;;17.30;3.90;;;;;;;23.05;58.27;101433.45;106456;1266;1002849;-53
2023/11/08 06:54:44;;;;;;;17.10;3.10;;;;;;;23.07;58.37;101423.11;107160;1254;25360;-53
2023/11/08 06:57:11;;;;;;;7.30;2.60;;;;;;;23.07;58.43;101423.45;107121;1252;25359;-53
2023/11/08 06:59:38;;;;;;;9.20;3.50;;;;;;;23.07;58.42;101417.05;106924;1259;22530;-54
2023/11/08 07:02:06;;;;;;;15.00;3.00;;;;;;;23.06;58.60;101410.94;107098;1267;22652;-52
2023/11/08 07:04:33;;;;;;;9.80;2.90;;;;;;;23.07;58.67;101407.33;107158;1259;24380;-53
2023/11/08 07:07:01;;;;;;;11.70;3.20;;;;;;;23.08;58.72;101404.25;106905;1269;25471;-53
2023/11/08 07:09:29;;;;;;;11.10;2.90;;;;;;;23.09;58.61;101401.17;107200;1267;25506;-54
2023/11/08 07:11:57;;;;;;;19.90;4.00;;;;;;;23.09;58.81;101394.67;107158;1257;25393;-54
2023/11/08 07:14:24;;;;;;;16.00;3.00;;;;;;;23.10;58.90;101395.64;107009;1266;22523;-54
2023/11/08 07:16:51;;;;;;;11.70;3.40;;;;;;;23.10;58.84;101390.30;107095;1266;25527;-53
2023/11/08 07:19:18;;;;;;;13.00;3.40;;;;;;;23.11;58.89;101385.11;107159;1267;25364;-54
2023/11/08 07:21:45;;;;;;;13.70;3.50;;;;;;;23.11;58.98;101372.71;106940;1267;25402;-53
2023/11/08 07:24:13;;;;;;;13.30;3.50;;;;;;;23.12;58.95;101375.85;107094;1267;23434;-54
2023/11/08 07:26:40;;;;;;;14.30;3.50;;;;;;;23.13;58.98;101373.44;107028;1251;24224;-53
2023/11/08 07:29:08;;;;;;;13.40;3.60;;;;;;;23.15;58.88;101380.42;107174;1254;25356;-53
2023/11/08 07:31:36;;;;;;;21.40;4.70;;;;;;;23.16;58.92;101381.29;107042;1266;24225;-53
2023/11/08 07:34:05;;;;;;;23.20;5.00;;;;;;;23.14;58.51;101385.45;107022;1266;25501;-52
2023/11/08 07:36:32;;;;;;;24.70;5.50;;;;;;;23.13;59.14;101394.58;107145;1266;25356;-53
2023/11/08 07:39:04;;;;;;;40.60;7.90;;;;;;;23.10;59.57;101389.10;107034;1269;25382;-54
2023/11/08 07:41:33;;;;;;;31.70;6.90;;;;;;;23.06;60.08;101382.98;106872;1267;26490;-54
2023/11/08 07:44:02;;;;;;;30.50;6.50;;;;;;;23.02;60.30;101378.08;106124;1266;1003577;-53
2023/11/08 07:46:30;;;;;;;19.80;5.40;;;;;;;22.98;60.52;101367.39;106768;1267;25328;-52
2023/11/08 07:48:57;;;;;;;21.10;4.40;;;;;;;22.95;60.79;101358.36;106794;1266;22517;-54
2023/11/08 07:51:25;;;;;;;18.30;4.60;;;;;;;22.94;61.02;101359.15;106873;1266;22529;-54
2023/11/08 07:53:56;;;;;;;13.80;3.50;;;;;;;22.93;61.04;101359.93;106860;1269;25397;-54
2023/11/08 07:56:24;;;;;;;16.20;3.70;;;;;;;22.92;61.20;101358.37;106764;1269;25322;-53
2023/11/08 07:58:52;;;;;;;12.40;3.20;;;;;;;22.92;61.19;101363.86;107145;1266;25452;-53
2023/11/08 08:01:19;;;;;;;19.30;3.50;;;;;;;22.92;61.39;101359.81;106917;1266;24243;-53
2023/11/08 08:03:48;;;;;;;16.20;4.30;;;;;;;22.91;61.40;101354.55;107036;1267;22666;-53
2023/11/08 08:06:17;;;;;;;11.10;2.70;;;;;;;22.92;61.37;101352.73;106828;1267;22780;-53
2023/11/08 08:08:44;;;;;;;15.70;3.80;;;;;;;22.93;61.40;101345.59;106769;1267;22653;-53
2023/11/08 08:11:12;;;;;;;17.60;5.00;;;;;;;22.94;61.54;101347.84;106337;1267;25507;-53
2023/11/08 08:13:39;;;;;;;14.80;3.30;;;;;;;22.94;61.51;101352.06;106678;1269;22585;-53
2023/11/08 08:16:06;;;;;;;17.90;3.70;;;;;;;22.93;61.59;101353.88;106873;1266;22530;-53
2023/11/08 08:18:35;;;;;;;12.00;3.60;;;;;;;22.94;61.48;101350.66;106877;1274;25786;-53
2023/11/08 08:21:03;;;;;;;20.90;4.10;;;;;;;22.96;61.56;101353.71;106955;1251;25408;-53
2023/11/08 08:23:30;;;;;;;13.10;3.60;;;;;;;22.97;61.65;101356.48;107066;1267;25383;-52
2023/11/08 08:25:57;;;;;;;15.00;3.90;;;;;;;22.94;61.68;101355.59;107153;1266;25341;-54
2023/11/08 08:28:25;;;;;;;14.70;3.90;;;;;;;22.99;61.53;101346.45;107089;1269;25340;-53
2023/11/08 08:30:52;;;;;;;13.10;3.70;;;;;;;23.05;61.52;101348.54;107107;1266;25362;-54
2023/11/08 08:33:19;;;;;;;15.00;4.40;;;;;;;23.08;61.35;101344.45;107047;1267;22532;-54
2023/11/08 08:35:49;;;;;;;16.60;4.10;;;;;;;23.11;61.06;101337.18;107141;1267;22534;-54
2023/11/08 08:38:16;;;;;;;17.70;3.90;;;;;;;23.12;60.98;101334.06;107094;1267;22534;-53
2023/11/08 08:40:43;;;;;;;16.60;3.60;;;;;;;23.13;60.86;101328.88;107172;1267;25210;-53
2023/11/08 08:43:11;;;;;;;19.10;4.20;;;;;;;23.05;61.07;101326.23;107148;1266;24222;-53
2023/11/08 08:45:38;;;;;;;11.60;3.70;;;;;;;23.02;61.03;101322.34;107195;1266;25334;-53
2023/11/08 08:48:06;;;;;;;27.00;4.30;;;;;;;23.05;60.81;101317.75;106510;1275;25328;-53
2023/11/08 08:50:33;;;;;;;10.20;3.50;;;;;;;23.07;60.68;101310.02;107221;1266;25349;-53
2023/11/08 08:53:00;;;;;;;13.70;3.50;;;;;;;23.07;60.80;101305.56;106845;1272;25337;-53
2023/11/08 08:55:27;;;;;;;11.80;3.40;;;;;;;23.10;60.78;101303.08;106868;1267;25342;-53
2023/11/08 08:57:54;;;;;;;14.90;3.60;;;;;;;23.12;60.62;101301.70;107222;1266;25312;-50
2023/11/08 09:03:45;;;;;;;14.40;3.30;;;;;;;23.19;60.55;101297.53;103752;1298;545094;-53
2023/11/08 09:06:17;;;;;;;23.30;4.10;;;;;;;23.18;60.66;101295.45;106005;1282;26511;-52
2023/11/08 09:08:46;;;;;;;16.00;4.60;;;;;;;23.21;60.38;101288.71;105865;1288;24221;-52
2023/11/08 09:11:14;;;;;;;19.20;4.10;;;;;;;23.22;60.41;101284.54;105965;1285;25295;-53
2023/11/08 09:13:42;;;;;;;16.20;4.00;;;;;;;23.22;60.55;101278.54;105954;1282;25364;-53
2023/11/08 09:16:09;;;;;;;15.10;3.90;;;;;;;23.24;60.50;101273.13;105922;1285;22703;-53
2023/11/08 09:18:38;;;;;;;16.30;3.80;;;;;;;23.26;60.34;101267.33;105933;1286;316272;-54
2023/11/08 09:21:06;;;;;;;14.70;3.30;;;;;;;23.27;60.26;101261.19;106206;1279;22644;-53
2023/11/08 09:23:34;;;;;;;22.00;4.20;;;;;;;23.28;60.30;101262.36;106170;1279;26507;-53
2023/11/08 09:26:02;;;;;;;12.20;3.10;;;;;;;23.30;60.21;101258.39;106266;1284;22533;-53
2023/11/08 09:28:30;;;;;;;15.10;3.30;;;;;;;23.30;60.06;101261.52;106285;1279;24317;-53
2023/11/08 09:30:57;;;;;;;11.60;3.40;;;;;;;23.31;59.95;101252.96;106192;1279;22551;-53
2023/11/08 09:33:27;;;;;;;13.10;4.30;;;;;;;23.33;59.88;101242.80;106154;1281;24384;-53
2023/11/08 09:35:55;;;;;;;12.80;4.50;;;;;;;23.32;59.96;101236.96;106194;1279;22659;-53
2023/11/08 09:38:27;;;;;;;14.80;4.00;;;;;;;23.35;59.66;101238.21;106322;1279;24238;-54
2023/11/08 09:40:55;;;;;;;15.60;4.50;;;;;;;23.36;59.67;101232.11;105905;1280;22543;-54
2023/11/08 09:43:23;;;;;;;17.60;3.50;;;;;;;23.37;59.52;101227.46;106265;1282;22555;-53
2023/11/08 09:45:53;;;;;;;13.10;3.80;;;;;;;23.38;59.31;101220.83;106250;1279;23916;-53
2023/11/08 09:48:24;;;;;;;14.80;3.60;;;;;;;23.39;59.25;101208.88;106028;1283;22546;-52
2023/11/08 09:50:51;;;;;;;12.40;3.30;;;;;;;23.41;59.21;101205.25;105937;1283;22758;-54
2023/11/08 09:53:20;;;;;;;17.90;3.50;;;;;;;23.44;59.21;101205.86;106045;1281;25067;-52
2023/11/08 09:55:48;;;;;;;13.20;3.60;;;;;;;23.48;59.13;101197.16;105724;1281;23233;-53
2023/11/08 09:58:16;;;;;;;14.60;3.80;;;;;;;23.52;59.09;101192.81;105809;1287;24640;-53
2023/11/08 10:00:44;;;;;;;18.20;3.90;;;;;;;23.55;59.12;101190.48;105900;1286;26717;-52
2023/11/08 10:03:14;;;;;;;12.80;3.70;;;;;;;23.59;58.99;101193.02;106005;1282;22533;-53
2023/11/08 10:05:46;;;;;;;17.60;3.50;;;;;;;23.63;58.88;101193.59;105908;1281;22589;-54
2023/11/08 10:08:14;;;;;;;12.10;3.70;;;;;;;23.69;58.76;101194.25;106505;1264;22528;-53
2023/11/08 10:10:44;;;;;;;14.00;4.00;;;;;;;23.73;58.62;101186.17;106828;1275;22520;-53
2023/11/08 10:13:12;;;;;;;11.50;3.50;;;;;;;23.76;58.53;101182.05;106648;1264;25545;-53
2023/11/08 10:15:40;;;;;;;15.80;4.40;;;;;;;23.79;58.65;101179.03;106793;1270;24240;-52
2023/11/08 10:18:08;;;;;;;14.00;4.10;;;;;;;23.80;58.54;101173.96;106708;1276;22540;-52
2023/11/08 10:21:04;;;;;;;18.20;5.00;;;;;;;23.80;58.40;101164.22;106836;1269;25343;-52
2023/11/08 10:23:32;;;;;;;15.30;4.40;;;;;;;23.81;58.42;101161.14;106627;1270;25356;-53
2023/11/08 10:26:17;;;;;;;12.10;3.80;;;;;;;23.82;58.44;101158.27;106446;1276;22624;-52
2023/11/08 10:29:01;;;;;;;12.70;4.40;;;;;;;23.81;58.23;101152.61;106852;1269;22527;-52
2023/11/08 10:31:40;;;;;;;19.10;4.70;;;;;;;23.81;58.30;101153.55;106715;1270;22537;-52
2023/11/08 10:34:09;;;;;;;13.80;4.20;;;;;;;23.81;58.24;101150.02;106666;1268;25259;-52
2023/11/08 10:36:38;;;;;;;16.90;5.20;;;;;;;23.77;58.31;101148.71;106705;1270;24213;-52
2023/11/08 10:39:13;;;;;;;14.20;4.40;;;;;;;23.73;58.38;101146.98;106638;1270;25391;-52
2023/11/08 10:41:43;;;;;;;15.10;4.60;;;;;;;23.72;58.51;101143.75;106869;1273;22537;-52
2023/11/08 10:44:21;;;;;;;25.40;5.30;;;;;;;23.71;58.52;101139.17;106646;1275;22535;-52
2023/11/08 10:47:00;;;;;;;18.60;3.90;;;;;;;23.71;58.74;101137.59;106750;1270;25328;-52
2023/11/08 10:49:28;;;;;;;22.30;4.50;;;;;;;23.72;58.75;101129.73;106786;1275;22530;-53
2023/11/08 10:51:57;;;;;;;18.30;3.40;;;;;;;23.73;58.79;101116.00;106806;1268;24283;-53
2023/11/08 10:54:25;;;;;;;25.00;5.10;;;;;;;23.74;58.88;101107.09;106821;1270;22543;-53
2023/11/08 10:56:54;;;;;;;14.30;4.10;;;;;;;23.76;59.07;101098.28;106759;1273;22523;-53
2023/11/08 10:59:22;;;;;;;17.40;4.50;;;;;;;23.77;59.23;101097.50;106734;1275;22522;-52
2023/11/08 11:01:50;;;;;;;19.80;4.30;;;;;;;23.78;59.24;101093.02;106847;1270;25373;-53
2023/11/08 11:04:19;;;;;;;20.20;5.00;;;;;;;23.79;59.28;101088.64;107017;1270;25350;-53
2023/11/08 11:06:47;;;;;;;18.60;5.80;;;;;;;23.82;59.38;101076.23;106883;1268;22564;-52
2023/11/08 11:09:16;;;;;;;20.80;5.40;;;;;;;23.85;59.44;101070.01;106822;1270;23862;-53
2023/11/08 11:11:47;;;;;;;16.50;4.80;;;;;;;23.89;59.51;101065.47;106818;1271;24025;-52
2023/11/08 11:14:19;;;;;;;;;;;;;;;23.93;59.37;101067.45;106775;1268;24254;-53
2023/11/08 11:16:56;;;;;;;13.20;3.40;;;;;;;23.96;59.38;101067.02;106925;1272;24198;-52
2023/11/08 11:19:24;;;;;;;16.10;4.20;;;;;;;23.98;59.11;101071.33;106930;1270;22554;-54
2023/11/08 11:21:54;;;;;;;20.70;5.30;;;;;;;24.01;59.05;101071.97;107065;1270;25526;-54